sensor_id;sensor_type;location;lat;lon;timestamp;P1;durP1;ratioP1;P2;durP2;ratioP2
75446;SDS011;64024;55.820;37.574;2023-05-14T00:01:00;4.13;;;2.30;;
75446;SDS011;64024;55.820;37.574;2023-05-14T00:03:25;3.38;;;2.33;;
75446;SDS011;64024;55.820;37.574;2023-05-14T00:05:51;4.30;;;2.10;;
75446;SDS011;64024;55.820;37.574;2023-05-14T00:08:16;3.72;;;2.40;;
75446;SDS011;64024;55.820;37.574;2023-05-14T00:10:42;2.60;;;2.15;;
75446;SDS011;64024;55.820;37.574;2023-05-14T00:13:07;2.65;;;2.40;;
75446;SDS011;64024;55.820;37.574;2023-05-14T00:15:33;2.33;;;1.77;;
75446;SDS011;64024;55.820;37.574;2023-05-14T00:17:58;9.48;;;2.30;;
75446;SDS011;64024;55.820;37.574;2023-05-14T00:20:24;5.13;;;2.25;;
75446;SDS011;64024;55.820;37.574;2023-05-14T00:22:50;3.95;;;1.92;;
75446;SDS011;64024;55.820;37.574;2023-05-14T00:25:15;4.35;;;2.28;;
75446;SDS011;64024;55.820;37.574;2023-05-14T00:27:41;4.10;;;1.95;;
75446;SDS011;64024;55.820;37.574;2023-05-14T00:30:06;3.03;;;1.95;;
75446;SDS011;64024;55.820;37.574;2023-05-14T00:32:32;2.70;;;2.15;;
75446;SDS011;64024;55.820;37.574;2023-05-14T00:34:58;5.95;;;2.05;;
75446;SDS011;64024;55.820;37.574;2023-05-14T00:37:23;5.00;;;2.22;;
75446;SDS011;64024;55.820;37.574;2023-05-14T00:39:49;4.00;;;2.38;;
75446;SDS011;64024;55.820;37.574;2023-05-14T00:42:14;3.83;;;2.50;;
75446;SDS011;64024;55.820;37.574;2023-05-14T00:44:40;3.72;;;2.20;;
75446;SDS011;64024;55.820;37.574;2023-05-14T00:47:06;3.45;;;2.35;;
75446;SDS011;64024;55.820;37.574;2023-05-14T00:49:32;3.00;;;1.98;;
75446;SDS011;64024;55.820;37.574;2023-05-14T00:51:59;4.75;;;2.15;;
75446;SDS011;64024;55.820;37.574;2023-05-14T00:54:24;6.00;;;2.78;;
75446;SDS011;64024;55.820;37.574;2023-05-14T00:56:51;5.22;;;2.70;;
75446;SDS011;64024;55.820;37.574;2023-05-14T00:59:16;3.85;;;2.25;;
75446;SDS011;64024;55.820;37.574;2023-05-14T01:01:42;4.53;;;1.85;;
75446;SDS011;64024;55.820;37.574;2023-05-14T01:04:08;4.45;;;2.38;;
75446;SDS011;64024;55.820;37.574;2023-05-14T01:12:28;3.95;;;2.08;;
75446;SDS011;64024;55.820;37.574;2023-05-14T01:17:27;2.88;;;1.50;;
75446;SDS011;64024;55.820;37.574;2023-05-14T01:19:56;4.15;;;1.80;;
75446;SDS011;64024;55.820;37.574;2023-05-14T01:22:22;3.15;;;1.90;;
75446;SDS011;64024;55.820;37.574;2023-05-14T01:24:48;3.25;;;1.70;;
75446;SDS011;64024;55.820;37.574;2023-05-14T01:30:03;3.58;;;1.63;;
75446;SDS011;64024;55.820;37.574;2023-05-14T01:32:34;3.28;;;1.65;;
75446;SDS011;64024;55.820;37.574;2023-05-14T01:35:03;3.63;;;1.63;;
75446;SDS011;64024;55.820;37.574;2023-05-14T01:37:29;2.63;;;1.60;;
75446;SDS011;64024;55.820;37.574;2023-05-14T01:39:56;2.30;;;1.92;;
75446;SDS011;64024;55.820;37.574;2023-05-14T01:42:23;3.42;;;1.88;;
75446;SDS011;64024;55.820;37.574;2023-05-14T01:44:49;4.85;;;1.85;;
75446;SDS011;64024;55.820;37.574;2023-05-14T01:47:15;5.93;;;1.98;;
75446;SDS011;64024;55.820;37.574;2023-05-14T01:49:41;4.95;;;2.00;;
75446;SDS011;64024;55.820;37.574;2023-05-14T01:52:06;4.82;;;2.10;;
75446;SDS011;64024;55.820;37.574;2023-05-14T01:54:32;3.50;;;1.60;;
75446;SDS011;64024;55.820;37.574;2023-05-14T01:56:58;2.53;;;1.90;;
75446;SDS011;64024;55.820;37.574;2023-05-14T01:59:23;4.13;;;2.00;;
75446;SDS011;64024;55.820;37.574;2023-05-14T02:01:49;5.35;;;2.60;;
75446;SDS011;64024;55.820;37.574;2023-05-14T02:04:14;3.83;;;2.58;;
75446;SDS011;64024;55.820;37.574;2023-05-14T02:06:40;4.30;;;2.65;;
75446;SDS011;64024;55.820;37.574;2023-05-14T02:09:06;3.60;;;2.30;;
75446;SDS011;64024;55.820;37.574;2023-05-14T02:11:31;2.22;;;1.58;;
75446;SDS011;64024;55.820;37.574;2023-05-14T02:13:56;3.72;;;2.65;;
75446;SDS011;64024;55.820;37.574;2023-05-14T02:16:22;4.72;;;3.78;;
75446;SDS011;64024;55.820;37.574;2023-05-14T02:18:48;3.03;;;2.55;;
75446;SDS011;64024;55.820;37.574;2023-05-14T02:21:13;4.07;;;2.60;;
75446;SDS011;64024;55.820;37.574;2023-05-14T02:23:39;3.40;;;2.55;;
75446;SDS011;64024;55.820;37.574;2023-05-14T02:26:04;4.03;;;2.70;;
75446;SDS011;64024;55.820;37.574;2023-05-14T02:28:30;3.60;;;2.10;;
75446;SDS011;64024;55.820;37.574;2023-05-14T02:30:58;3.00;;;2.05;;
75446;SDS011;64024;55.820;37.574;2023-05-14T02:33:27;3.03;;;2.08;;
75446;SDS011;64024;55.820;37.574;2023-05-14T02:35:52;2.72;;;2.00;;
75446;SDS011;64024;55.820;37.574;2023-05-14T02:38:18;2.60;;;2.10;;
75446;SDS011;64024;55.820;37.574;2023-05-14T02:40:44;2.33;;;2.03;;
75446;SDS011;64024;55.820;37.574;2023-05-14T02:43:10;4.55;;;2.13;;
75446;SDS011;64024;55.820;37.574;2023-05-14T02:45:35;5.40;;;2.65;;
75446;SDS011;64024;55.820;37.574;2023-05-14T02:48:01;5.18;;;2.13;;
75446;SDS011;64024;55.820;37.574;2023-05-14T02:50:26;2.78;;;2.17;;
75446;SDS011;64024;55.820;37.574;2023-05-14T02:52:52;3.80;;;2.20;;
75446;SDS011;64024;55.820;37.574;2023-05-14T02:55:17;4.57;;;2.25;;
75446;SDS011;64024;55.820;37.574;2023-05-14T02:57:43;2.92;;;1.63;;
75446;SDS011;64024;55.820;37.574;2023-05-14T03:00:10;2.50;;;2.00;;
75446;SDS011;64024;55.820;37.574;2023-05-14T03:02:36;3.35;;;2.17;;
75446;SDS011;64024;55.820;37.574;2023-05-14T03:05:01;2.60;;;1.88;;
75446;SDS011;64024;55.820;37.574;2023-05-14T03:07:27;2.95;;;2.10;;
75446;SDS011;64024;55.820;37.574;2023-05-14T03:09:53;2.78;;;1.73;;
75446;SDS011;64024;55.820;37.574;2023-05-14T03:12:18;5.35;;;2.22;;
75446;SDS011;64024;55.820;37.574;2023-05-14T03:14:45;3.08;;;2.08;;
75446;SDS011;64024;55.820;37.574;2023-05-14T03:17:10;2.35;;;1.92;;
75446;SDS011;64024;55.820;37.574;2023-05-14T03:19:36;3.10;;;1.90;;
75446;SDS011;64024;55.820;37.574;2023-05-14T03:22:01;3.30;;;2.22;;
75446;SDS011;64024;55.820;37.574;2023-05-14T03:24:27;4.68;;;2.30;;
75446;SDS011;64024;55.820;37.574;2023-05-14T03:26:52;2.72;;;2.30;;
75446;SDS011;64024;55.820;37.574;2023-05-14T03:29:18;4.00;;;2.42;;
75446;SDS011;64024;55.820;37.574;2023-05-14T03:31:43;2.88;;;2.58;;
75446;SDS011;64024;55.820;37.574;2023-05-14T03:34:09;3.65;;;2.17;;
75446;SDS011;64024;55.820;37.574;2023-05-14T03:36:35;3.75;;;2.03;;
75446;SDS011;64024;55.820;37.574;2023-05-14T03:39:02;4.45;;;2.20;;
75446;SDS011;64024;55.820;37.574;2023-05-14T03:41:30;4.43;;;1.80;;
75446;SDS011;64024;55.820;37.574;2023-05-14T03:43:56;3.47;;;1.80;;
75446;SDS011;64024;55.820;37.574;2023-05-14T03:46:22;2.80;;;1.77;;
75446;SDS011;64024;55.820;37.574;2023-05-14T03:48:47;2.55;;;1.85;;
75446;SDS011;64024;55.820;37.574;2023-05-14T03:51:13;3.17;;;2.13;;
75446;SDS011;64024;55.820;37.574;2023-05-14T03:53:38;2.70;;;1.70;;
75446;SDS011;64024;55.820;37.574;2023-05-14T03:56:04;2.67;;;1.90;;
75446;SDS011;64024;55.820;37.574;2023-05-14T03:58:29;4.47;;;2.58;;
75446;SDS011;64024;55.820;37.574;2023-05-14T04:00:55;3.45;;;2.42;;
75446;SDS011;64024;55.820;37.574;2023-05-14T04:03:20;4.32;;;2.63;;
75446;SDS011;64024;55.820;37.574;2023-05-14T04:05:46;3.78;;;2.58;;
75446;SDS011;64024;55.820;37.574;2023-05-14T04:08:11;4.45;;;3.05;;
75446;SDS011;64024;55.820;37.574;2023-05-14T04:10:37;5.78;;;2.50;;
75446;SDS011;64024;55.820;37.574;2023-05-14T04:13:02;2.45;;;1.98;;
75446;SDS011;64024;55.820;37.574;2023-05-14T04:15:28;2.80;;;2.10;;
75446;SDS011;64024;55.820;37.574;2023-05-14T04:17:53;4.38;;;2.30;;
75446;SDS011;64024;55.820;37.574;2023-05-14T04:20:19;2.35;;;1.90;;
75446;SDS011;64024;55.820;37.574;2023-05-14T04:22:44;2.88;;;2.50;;
75446;SDS011;64024;55.820;37.574;2023-05-14T04:25:10;2.63;;;2.25;;
75446;SDS011;64024;55.820;37.574;2023-05-14T04:27:35;2.88;;;2.03;;
75446;SDS011;64024;55.820;37.574;2023-05-14T04:30:01;2.92;;;2.22;;
75446;SDS011;64024;55.820;37.574;2023-05-14T04:32:27;2.60;;;1.90;;
75446;SDS011;64024;55.820;37.574;2023-05-14T04:34:54;2.95;;;2.08;;
75446;SDS011;64024;55.820;37.574;2023-05-14T04:37:20;4.53;;;2.22;;
75446;SDS011;64024;55.820;37.574;2023-05-14T04:39:45;3.25;;;2.05;;
75446;SDS011;64024;55.820;37.574;2023-05-14T04:42:11;3.03;;;2.30;;
75446;SDS011;64024;55.820;37.574;2023-05-14T04:44:36;2.13;;;1.92;;
75446;SDS011;64024;55.820;37.574;2023-05-14T04:47:02;2.40;;;1.88;;
75446;SDS011;64024;55.820;37.574;2023-05-14T04:49:28;7.53;;;3.35;;
75446;SDS011;64024;55.820;37.574;2023-05-14T04:51:55;3.60;;;2.40;;
75446;SDS011;64024;55.820;37.574;2023-05-14T04:54:20;3.38;;;2.42;;
75446;SDS011;64024;55.820;37.574;2023-05-14T04:56:46;2.70;;;2.10;;
75446;SDS011;64024;55.820;37.574;2023-05-14T04:59:11;3.00;;;1.80;;
75446;SDS011;64024;55.820;37.574;2023-05-14T05:01:37;2.78;;;2.00;;
75446;SDS011;64024;55.820;37.574;2023-05-14T05:04:03;2.55;;;2.15;;
75446;SDS011;64024;55.820;37.574;2023-05-14T05:06:28;2.50;;;2.05;;
75446;SDS011;64024;55.820;37.574;2023-05-14T05:08:54;3.13;;;2.25;;
75446;SDS011;64024;55.820;37.574;2023-05-14T05:11:20;2.40;;;2.00;;
75446;SDS011;64024;55.820;37.574;2023-05-14T05:13:45;3.17;;;2.67;;
75446;SDS011;64024;55.820;37.574;2023-05-14T05:16:11;3.10;;;2.47;;
75446;SDS011;64024;55.820;37.574;2023-05-14T05:18:36;2.40;;;1.70;;
75446;SDS011;64024;55.820;37.574;2023-05-14T05:21:02;2.97;;;2.33;;
75446;SDS011;64024;55.820;37.574;2023-05-14T05:23:28;2.65;;;2.30;;
75446;SDS011;64024;55.820;37.574;2023-05-14T05:25:54;4.40;;;2.42;;
75446;SDS011;64024;55.820;37.574;2023-05-14T05:28:19;6.88;;;2.72;;
75446;SDS011;64024;55.820;37.574;2023-05-14T05:30:45;2.95;;;1.73;;
75446;SDS011;64024;55.820;37.574;2023-05-14T05:33:11;3.28;;;2.38;;
75446;SDS011;64024;55.820;37.574;2023-05-14T05:35:37;3.08;;;2.47;;
75446;SDS011;64024;55.820;37.574;2023-05-14T05:38:02;3.47;;;2.17;;
75446;SDS011;64024;55.820;37.574;2023-05-14T05:40:28;3.45;;;2.28;;
75446;SDS011;64024;55.820;37.574;2023-05-14T05:42:53;2.60;;;2.40;;
75446;SDS011;64024;55.820;37.574;2023-05-14T05:45:19;3.10;;;2.58;;
75446;SDS011;64024;55.820;37.574;2023-05-14T05:47:44;3.72;;;3.17;;
75446;SDS011;64024;55.820;37.574;2023-05-14T05:50:10;3.65;;;2.90;;
75446;SDS011;64024;55.820;37.574;2023-05-14T05:52:36;3.60;;;2.70;;
75446;SDS011;64024;55.820;37.574;2023-05-14T05:55:02;4.50;;;2.78;;
75446;SDS011;64024;55.820;37.574;2023-05-14T05:57:28;3.95;;;2.55;;
75446;SDS011;64024;55.820;37.574;2023-05-14T05:59:53;3.72;;;3.30;;
75446;SDS011;64024;55.820;37.574;2023-05-14T06:02:19;2.92;;;2.28;;
75446;SDS011;64024;55.820;37.574;2023-05-14T06:04:45;2.15;;;1.80;;
75446;SDS011;64024;55.820;37.574;2023-05-14T06:07:10;3.58;;;2.00;;
75446;SDS011;64024;55.820;37.574;2023-05-14T06:09:36;5.38;;;2.00;;
75446;SDS011;64024;55.820;37.574;2023-05-14T06:12:02;2.28;;;1.90;;
75446;SDS011;64024;55.820;37.574;2023-05-14T06:14:27;2.35;;;1.90;;
75446;SDS011;64024;55.820;37.574;2023-05-14T06:16:53;4.75;;;1.63;;
75446;SDS011;64024;55.820;37.574;2023-05-14T06:19:18;2.10;;;1.85;;
75446;SDS011;64024;55.820;37.574;2023-05-14T06:21:44;3.58;;;2.28;;
75446;SDS011;64024;55.820;37.574;2023-05-14T06:24:09;2.42;;;2.08;;
75446;SDS011;64024;55.820;37.574;2023-05-14T06:26:35;1.88;;;1.25;;
75446;SDS011;64024;55.820;37.574;2023-05-14T06:29:00;2.13;;;1.50;;
75446;SDS011;64024;55.820;37.574;2023-05-14T06:31:26;2.50;;;1.80;;
75446;SDS011;64024;55.820;37.574;2023-05-14T06:33:52;2.90;;;2.53;;
75446;SDS011;64024;55.820;37.574;2023-05-14T06:36:17;3.15;;;2.38;;
75446;SDS011;64024;55.820;37.574;2023-05-14T06:38:42;3.83;;;2.20;;
75446;SDS011;64024;55.820;37.574;2023-05-14T06:41:08;2.30;;;1.98;;
75446;SDS011;64024;55.820;37.574;2023-05-14T06:43:33;3.42;;;1.92;;
75446;SDS011;64024;55.820;37.574;2023-05-14T06:45:59;3.53;;;2.03;;
75446;SDS011;64024;55.820;37.574;2023-05-14T06:48:25;2.45;;;1.90;;
75446;SDS011;64024;55.820;37.574;2023-05-14T06:50:53;4.10;;;2.17;;
75446;SDS011;64024;55.820;37.574;2023-05-14T06:53:18;2.60;;;1.80;;
75446;SDS011;64024;55.820;37.574;2023-05-14T06:55:45;2.67;;;2.05;;
75446;SDS011;64024;55.820;37.574;2023-05-14T06:58:12;2.55;;;1.58;;
75446;SDS011;64024;55.820;37.574;2023-05-14T07:00:37;2.47;;;1.63;;
75446;SDS011;64024;55.820;37.574;2023-05-14T07:03:03;1.85;;;1.38;;
75446;SDS011;64024;55.820;37.574;2023-05-14T07:05:29;2.10;;;1.65;;
75446;SDS011;64024;55.820;37.574;2023-05-14T07:07:55;3.25;;;1.67;;
75446;SDS011;64024;55.820;37.574;2023-05-14T07:10:21;3.15;;;1.38;;
75446;SDS011;64024;55.820;37.574;2023-05-14T07:12:46;2.33;;;1.70;;
75446;SDS011;64024;55.820;37.574;2023-05-14T07:15:13;2.95;;;1.70;;
75446;SDS011;64024;55.820;37.574;2023-05-14T07:17:38;2.72;;;1.52;;
75446;SDS011;64024;55.820;37.574;2023-05-14T07:20:04;2.40;;;1.65;;
75446;SDS011;64024;55.820;37.574;2023-05-14T07:22:30;2.22;;;1.65;;
75446;SDS011;64024;55.820;37.574;2023-05-14T07:24:56;2.42;;;1.67;;
75446;SDS011;64024;55.820;37.574;2023-05-14T07:27:21;2.30;;;1.73;;
75446;SDS011;64024;55.820;37.574;2023-05-14T07:29:48;2.10;;;1.60;;
75446;SDS011;64024;55.820;37.574;2023-05-14T07:32:14;2.72;;;1.70;;
75446;SDS011;64024;55.820;37.574;2023-05-14T07:34:39;2.17;;;1.60;;
75446;SDS011;64024;55.820;37.574;2023-05-14T07:37:05;4.88;;;1.52;;
75446;SDS011;64024;55.820;37.574;2023-05-14T07:39:31;2.30;;;1.40;;
75446;SDS011;64024;55.820;37.574;2023-05-14T07:41:56;1.90;;;1.42;;
75446;SDS011;64024;55.820;37.574;2023-05-14T07:44:22;1.80;;;1.25;;
75446;SDS011;64024;55.820;37.574;2023-05-14T07:46:47;1.88;;;1.20;;
75446;SDS011;64024;55.820;37.574;2023-05-14T07:49:13;1.83;;;1.20;;
75446;SDS011;64024;55.820;37.574;2023-05-14T07:51:38;1.85;;;1.30;;
75446;SDS011;64024;55.820;37.574;2023-05-14T07:54:04;2.38;;;1.75;;
75446;SDS011;64024;55.820;37.574;2023-05-14T07:56:29;3.25;;;1.60;;
75446;SDS011;64024;55.820;37.574;2023-05-14T07:58:55;5.68;;;2.05;;
75446;SDS011;64024;55.820;37.574;2023-05-14T08:01:21;2.08;;;1.00;;
75446;SDS011;64024;55.820;37.574;2023-05-14T08:03:46;3.97;;;2.50;;
75446;SDS011;64024;55.820;37.574;2023-05-14T08:06:12;2.50;;;1.67;;
75446;SDS011;64024;55.820;37.574;2023-05-14T08:08:37;1.88;;;1.00;;
75446;SDS011;64024;55.820;37.574;2023-05-14T08:11:03;2.80;;;1.67;;
75446;SDS011;64024;55.820;37.574;2023-05-14T08:13:29;7.05;;;2.03;;
75446;SDS011;64024;55.820;37.574;2023-05-14T08:15:54;3.75;;;2.28;;
75446;SDS011;64024;55.820;37.574;2023-05-14T08:18:20;2.80;;;1.88;;
75446;SDS011;64024;55.820;37.574;2023-05-14T08:20:46;3.60;;;2.08;;
75446;SDS011;64024;55.820;37.574;2023-05-14T08:23:12;2.97;;;1.63;;
75446;SDS011;64024;55.820;37.574;2023-05-14T08:25:37;2.92;;;1.38;;
75446;SDS011;64024;55.820;37.574;2023-05-14T08:28:03;3.30;;;1.35;;
75446;SDS011;64024;55.820;37.574;2023-05-14T08:30:29;2.03;;;1.23;;
75446;SDS011;64024;55.820;37.574;2023-05-14T08:32:55;2.10;;;0.88;;
75446;SDS011;64024;55.820;37.574;2023-05-14T08:35:20;1.80;;;1.23;;
75446;SDS011;64024;55.820;37.574;2023-05-14T08:37:48;2.15;;;1.40;;
75446;SDS011;64024;55.820;37.574;2023-05-14T08:40:16;2.45;;;1.08;;
75446;SDS011;64024;55.820;37.574;2023-05-14T08:42:42;1.55;;;1.10;;
75446;SDS011;64024;55.820;37.574;2023-05-14T08:47:34;2.33;;;0.90;;
75446;SDS011;64024;55.820;37.574;2023-05-14T08:50:02;2.78;;;1.10;;
75446;SDS011;64024;55.820;37.574;2023-05-14T08:52:29;2.00;;;0.80;;
75446;SDS011;64024;55.820;37.574;2023-05-14T08:54:55;1.38;;;0.80;;
75446;SDS011;64024;55.820;37.574;2023-05-14T08:57:24;1.15;;;0.65;;
75446;SDS011;64024;55.820;37.574;2023-05-14T08:59:50;1.95;;;1.10;;
75446;SDS011;64024;55.820;37.574;2023-05-14T09:02:17;1.40;;;0.80;;
75446;SDS011;64024;55.820;37.574;2023-05-14T09:04:47;2.20;;;0.90;;
75446;SDS011;64024;55.820;37.574;2023-05-14T09:07:18;5.93;;;1.52;;
75446;SDS011;64024;55.820;37.574;2023-05-14T09:09:44;2.25;;;0.93;;
75446;SDS011;64024;55.820;37.574;2023-05-14T09:12:11;2.80;;;1.02;;
75446;SDS011;64024;55.820;37.574;2023-05-14T09:14:37;1.85;;;0.95;;
75446;SDS011;64024;55.820;37.574;2023-05-14T09:17:02;3.25;;;0.98;;
75446;SDS011;64024;55.820;37.574;2023-05-14T09:19:28;2.33;;;0.90;;
75446;SDS011;64024;55.820;37.574;2023-05-14T09:21:55;1.27;;;0.90;;
75446;SDS011;64024;55.820;37.574;2023-05-14T09:24:25;3.85;;;1.27;;
75446;SDS011;64024;55.820;37.574;2023-05-14T09:26:54;2.25;;;1.00;;
75446;SDS011;64024;55.820;37.574;2023-05-14T09:29:24;1.90;;;1.20;;
75446;SDS011;64024;55.820;37.574;2023-05-14T09:31:50;1.58;;;0.90;;
75446;SDS011;64024;55.820;37.574;2023-05-14T09:34:26;1.10;;;0.80;;
75446;SDS011;64024;55.820;37.574;2023-05-14T09:36:59;1.85;;;0.82;;
75446;SDS011;64024;55.820;37.574;2023-05-14T09:39:27;1.70;;;0.93;;
75446;SDS011;64024;55.820;37.574;2023-05-14T09:41:56;7.00;;;1.42;;
75446;SDS011;64024;55.820;37.574;2023-05-14T09:44:22;1.70;;;1.00;;
75446;SDS011;64024;55.820;37.574;2023-05-14T09:46:48;1.60;;;0.88;;
75446;SDS011;64024;55.820;37.574;2023-05-14T09:49:14;1.38;;;0.73;;
75446;SDS011;64024;55.820;37.574;2023-05-14T09:51:43;1.33;;;0.70;;
75446;SDS011;64024;55.820;37.574;2023-05-14T09:54:09;2.28;;;0.60;;
75446;SDS011;64024;55.820;37.574;2023-05-14T09:56:35;1.77;;;0.70;;
75446;SDS011;64024;55.820;37.574;2023-05-14T09:59:01;5.80;;;1.58;;
75446;SDS011;64024;55.820;37.574;2023-05-14T10:01:28;1.63;;;0.90;;
75446;SDS011;64024;55.820;37.574;2023-05-14T10:03:55;2.40;;;0.90;;
75446;SDS011;64024;55.820;37.574;2023-05-14T10:06:22;1.27;;;0.77;;
75446;SDS011;64024;55.820;37.574;2023-05-14T10:08:55;1.38;;;0.93;;
75446;SDS011;64024;55.820;37.574;2023-05-14T10:11:23;1.67;;;0.90;;
75446;SDS011;64024;55.820;37.574;2023-05-14T10:16:40;3.42;;;1.40;;
75446;SDS011;64024;55.820;37.574;2023-05-14T10:19:17;1.38;;;0.98;;
75446;SDS011;64024;55.820;37.574;2023-05-14T10:21:48;2.22;;;0.77;;
75446;SDS011;64024;55.820;37.574;2023-05-14T10:24:19;2.55;;;0.70;;
75446;SDS011;64024;55.820;37.574;2023-05-14T10:26:46;1.48;;;0.70;;
75446;SDS011;64024;55.820;37.574;2023-05-14T10:29:12;1.58;;;0.63;;
75446;SDS011;64024;55.820;37.574;2023-05-14T10:31:53;1.75;;;0.70;;
75446;SDS011;64024;55.820;37.574;2023-05-14T10:34:32;1.17;;;0.70;;
75446;SDS011;64024;55.820;37.574;2023-05-14T10:37:03;2.75;;;0.85;;
75446;SDS011;64024;55.820;37.574;2023-05-14T10:42:13;1.17;;;0.60;;
75446;SDS011;64024;55.820;37.574;2023-05-14T10:45:03;2.72;;;0.80;;
75446;SDS011;64024;55.820;37.574;2023-05-14T10:47:36;1.38;;;0.77;;
75446;SDS011;64024;55.820;37.574;2023-05-14T10:50:07;6.88;;;2.53;;
75446;SDS011;64024;55.820;37.574;2023-05-14T10:52:34;6.03;;;1.88;;
75446;SDS011;64024;55.820;37.574;2023-05-14T10:55:01;2.70;;;1.02;;
75446;SDS011;64024;55.820;37.574;2023-05-14T10:57:29;1.42;;;0.82;;
75446;SDS011;64024;55.820;37.574;2023-05-14T10:59:57;1.45;;;0.60;;
75446;SDS011;64024;55.820;37.574;2023-05-14T11:02:25;1.15;;;0.73;;
75446;SDS011;64024;55.820;37.574;2023-05-14T11:07:22;6.30;;;1.58;;
75446;SDS011;64024;55.820;37.574;2023-05-14T11:09:59;3.50;;;1.00;;
75446;SDS011;64024;55.820;37.574;2023-05-14T11:12:27;2.67;;;0.93;;
75446;SDS011;64024;55.820;37.574;2023-05-14T11:14:55;1.15;;;0.77;;
75446;SDS011;64024;55.820;37.574;2023-05-14T11:17:23;1.02;;;0.63;;
75446;SDS011;64024;55.820;37.574;2023-05-14T11:19:50;1.52;;;0.63;;
75446;SDS011;64024;55.820;37.574;2023-05-14T11:22:15;1.20;;;0.60;;
75446;SDS011;64024;55.820;37.574;2023-05-14T11:24:41;4.95;;;1.73;;
75446;SDS011;64024;55.820;37.574;2023-05-14T11:27:07;1.50;;;0.63;;
75446;SDS011;64024;55.820;37.574;2023-05-14T11:29:36;1.45;;;0.70;;
75446;SDS011;64024;55.820;37.574;2023-05-14T11:32:05;1.20;;;0.65;;
75446;SDS011;64024;55.820;37.574;2023-05-14T11:34:32;1.80;;;0.65;;
75446;SDS011;64024;55.820;37.574;2023-05-14T11:39:26;0.98;;;0.60;;
75446;SDS011;64024;55.820;37.574;2023-05-14T11:41:52;6.28;;;1.63;;
75446;SDS011;64024;55.820;37.574;2023-05-14T11:44:17;1.65;;;0.60;;
75446;SDS011;64024;55.820;37.574;2023-05-14T11:46:52;1.52;;;0.73;;
75446;SDS011;64024;55.820;37.574;2023-05-14T11:49:20;1.40;;;0.80;;
75446;SDS011;64024;55.820;37.574;2023-05-14T11:51:47;1.52;;;0.60;;
75446;SDS011;64024;55.820;37.574;2023-05-14T11:54:12;0.90;;;0.60;;
75446;SDS011;64024;55.820;37.574;2023-05-14T11:56:38;1.15;;;0.55;;
75446;SDS011;64024;55.820;37.574;2023-05-14T11:59:03;2.92;;;1.13;;
75446;SDS011;64024;55.820;37.574;2023-05-14T12:01:37;3.13;;;0.63;;
75446;SDS011;64024;55.820;37.574;2023-05-14T12:04:03;2.05;;;0.70;;
75446;SDS011;64024;55.820;37.574;2023-05-14T12:06:29;0.95;;;0.50;;
75446;SDS011;64024;55.820;37.574;2023-05-14T12:11:21;3.05;;;0.70;;
75446;SDS011;64024;55.820;37.574;2023-05-14T12:13:47;1.73;;;0.60;;
75446;SDS011;64024;55.820;37.574;2023-05-14T12:16:12;8.73;;;1.63;;
75446;SDS011;64024;55.820;37.574;2023-05-14T12:18:38;2.05;;;0.80;;
75446;SDS011;64024;55.820;37.574;2023-05-14T12:21:03;1.75;;;0.82;;
75446;SDS011;64024;55.820;37.574;2023-05-14T12:23:32;1.40;;;0.65;;
75446;SDS011;64024;55.820;37.574;2023-05-14T12:26:01;3.47;;;0.90;;
75446;SDS011;64024;55.820;37.574;2023-05-14T12:28:30;2.50;;;1.00;;
75446;SDS011;64024;55.820;37.574;2023-05-14T12:30:56;2.08;;;1.05;;
75446;SDS011;64024;55.820;37.574;2023-05-14T12:33:22;6.38;;;1.75;;
75446;SDS011;64024;55.820;37.574;2023-05-14T12:35:48;2.35;;;1.15;;
75446;SDS011;64024;55.820;37.574;2023-05-14T12:38:14;2.88;;;1.33;;
75446;SDS011;64024;55.820;37.574;2023-05-14T12:40:40;2.67;;;1.25;;
75446;SDS011;64024;55.820;37.574;2023-05-14T12:43:05;1.65;;;1.27;;
75446;SDS011;64024;55.820;37.574;2023-05-14T12:45:31;2.28;;;0.95;;
75446;SDS011;64024;55.820;37.574;2023-05-14T12:47:56;2.63;;;1.08;;
75446;SDS011;64024;55.820;37.574;2023-05-14T12:50:22;7.07;;;2.30;;
75446;SDS011;64024;55.820;37.574;2023-05-14T12:52:47;2.25;;;1.15;;
75446;SDS011;64024;55.820;37.574;2023-05-14T12:55:13;1.83;;;0.75;;
75446;SDS011;64024;55.820;37.574;2023-05-14T12:57:38;0.80;;;0.40;;
75446;SDS011;64024;55.820;37.574;2023-05-14T13:00:04;2.00;;;0.70;;
75446;SDS011;64024;55.820;37.574;2023-05-14T13:02:32;1.05;;;0.80;;
75446;SDS011;64024;55.820;37.574;2023-05-14T13:04:58;1.38;;;0.60;;
75446;SDS011;64024;55.820;37.574;2023-05-14T13:07:26;4.22;;;1.30;;
75446;SDS011;64024;55.820;37.574;2023-05-14T13:09:54;3.38;;;1.48;;
75446;SDS011;64024;55.820;37.574;2023-05-14T13:12:19;3.08;;;1.30;;
75446;SDS011;64024;55.820;37.574;2023-05-14T13:14:45;2.95;;;1.40;;
75446;SDS011;64024;55.820;37.574;2023-05-14T13:17:10;2.08;;;0.90;;
75446;SDS011;64024;55.820;37.574;2023-05-14T13:19:36;1.75;;;1.10;;
75446;SDS011;64024;55.820;37.574;2023-05-14T13:22:01;2.25;;;1.75;;
75446;SDS011;64024;55.820;37.574;2023-05-14T13:24:27;2.88;;;1.75;;
75446;SDS011;64024;55.820;37.574;2023-05-14T13:26:53;2.30;;;1.45;;
75446;SDS011;64024;55.820;37.574;2023-05-14T13:29:18;2.83;;;1.50;;
75446;SDS011;64024;55.820;37.574;2023-05-14T13:31:44;3.78;;;1.23;;
75446;SDS011;64024;55.820;37.574;2023-05-14T13:34:09;1.65;;;1.20;;
75446;SDS011;64024;55.820;37.574;2023-05-14T13:36:35;1.80;;;1.08;;
75446;SDS011;64024;55.820;37.574;2023-05-14T13:39:04;2.10;;;1.52;;
75446;SDS011;64024;55.820;37.574;2023-05-14T13:41:30;1.98;;;1.52;;
75446;SDS011;64024;55.820;37.574;2023-05-14T13:43:59;2.30;;;1.90;;
75446;SDS011;64024;55.820;37.574;2023-05-14T13:46:24;2.20;;;1.60;;
75446;SDS011;64024;55.820;37.574;2023-05-14T13:48:50;4.10;;;1.80;;
75446;SDS011;64024;55.820;37.574;2023-05-14T13:51:15;1.73;;;1.20;;
75446;SDS011;64024;55.820;37.574;2023-05-14T13:53:41;2.97;;;1.80;;
75446;SDS011;64024;55.820;37.574;2023-05-14T13:56:06;1.58;;;1.30;;
75446;SDS011;64024;55.820;37.574;2023-05-14T13:58:32;1.60;;;1.17;;
75446;SDS011;64024;55.820;37.574;2023-05-14T14:00:58;2.28;;;1.25;;
75446;SDS011;64024;55.820;37.574;2023-05-14T14:03:23;2.13;;;1.20;;
75446;SDS011;64024;55.820;37.574;2023-05-14T14:05:49;1.55;;;1.00;;
75446;SDS011;64024;55.820;37.574;2023-05-14T14:08:16;2.10;;;1.20;;
75446;SDS011;64024;55.820;37.574;2023-05-14T14:10:41;2.72;;;1.52;;
75446;SDS011;64024;55.820;37.574;2023-05-14T14:13:07;2.67;;;1.10;;
75446;SDS011;64024;55.820;37.574;2023-05-14T14:15:34;2.10;;;1.20;;
75446;SDS011;64024;55.820;37.574;2023-05-14T14:18:00;2.50;;;1.40;;
75446;SDS011;64024;55.820;37.574;2023-05-14T14:20:26;2.80;;;1.98;;
75446;SDS011;64024;55.820;37.574;2023-05-14T14:22:51;2.45;;;1.50;;
75446;SDS011;64024;55.820;37.574;2023-05-14T14:25:17;3.08;;;1.30;;
75446;SDS011;64024;55.820;37.574;2023-05-14T14:27:42;1.80;;;1.25;;
75446;SDS011;64024;55.820;37.574;2023-05-14T14:30:08;1.48;;;1.10;;
75446;SDS011;64024;55.820;37.574;2023-05-14T14:32:48;2.33;;;1.20;;
75446;SDS011;64024;55.820;37.574;2023-05-14T14:35:15;2.05;;;1.60;;
75446;SDS011;64024;55.820;37.574;2023-05-14T14:37:41;4.95;;;1.85;;
75446;SDS011;64024;55.820;37.574;2023-05-14T14:40:09;1.92;;;1.52;;
75446;SDS011;64024;55.820;37.574;2023-05-14T14:42:36;2.65;;;1.88;;
75446;SDS011;64024;55.820;37.574;2023-05-14T14:45:05;1.80;;;1.20;;
75446;SDS011;64024;55.820;37.574;2023-05-14T14:47:31;2.42;;;0.82;;
75446;SDS011;64024;55.820;37.574;2023-05-14T14:49:57;2.92;;;2.15;;
75446;SDS011;64024;55.820;37.574;2023-05-14T14:52:23;1.92;;;1.60;;
75446;SDS011;64024;55.820;37.574;2023-05-14T14:54:49;2.05;;;1.40;;